createdAt,value
2022-11-24T00:01:24.375Z,8.30
2022-11-24T00:04:00.079Z,8.30
2022-11-24T00:06:27.876Z,8.30
2022-11-24T00:08:55.214Z,8.30
2022-11-24T00:11:34.043Z,8.20
2022-11-24T00:14:01.001Z,8.20
2022-11-24T00:16:30.134Z,8.20
2022-11-24T00:18:58.712Z,8.20
2022-11-24T00:21:27.481Z,8.20
2022-11-24T00:23:54.571Z,8.20
2022-11-24T00:26:23.781Z,8.20
2022-11-24T00:28:51.805Z,8.20
2022-11-24T00:31:23.051Z,8.20
2022-11-24T00:33:51.477Z,8.30
2022-11-24T00:36:19.754Z,8.30
2022-11-24T00:38:46.602Z,8.30
2022-11-24T00:41:14.046Z,8.30
2022-11-24T00:43:40.773Z,8.40
2022-11-24T00:46:07.614Z,8.40
2022-11-24T00:48:34.780Z,8.30
2022-11-24T00:51:07.070Z,8.40
2022-11-24T00:53:34.176Z,8.40
2022-11-24T00:56:00.971Z,8.40
2022-11-24T00:58:27.697Z,8.30
2022-11-24T01:00:54.355Z,8.30
2022-11-24T01:03:22.623Z,8.30
2022-11-24T01:05:49.282Z,8.30
2022-11-24T01:08:15.970Z,8.30
2022-11-24T01:10:42.663Z,8.30
2022-11-24T01:13:09.470Z,8.30
2022-11-24T01:15:37.013Z,8.20
2022-11-24T01:18:04.768Z,8.20
2022-11-24T01:20:32.090Z,8.20
2022-11-24T01:22:58.797Z,8.30
2022-11-24T01:25:25.490Z,8.20
2022-11-24T01:27:52.565Z,8.20
2022-11-24T01:30:19.606Z,8.20
2022-11-24T01:32:46.333Z,8.20
2022-11-24T01:35:12.979Z,8.20
2022-11-24T01:37:39.784Z,8.20
2022-11-24T01:40:07.217Z,8.20
2022-11-24T01:42:42.591Z,8.20
2022-11-24T01:45:32.351Z,8.20
2022-11-24T01:48:01.240Z,8.20
2022-11-24T01:50:28.260Z,8.20
2022-11-24T01:52:56.552Z,8.20
2022-11-24T01:55:29.745Z,8.20
2022-11-24T01:58:17.673Z,8.10
2022-11-24T02:00:45.805Z,8.00
2022-11-24T02:03:15.459Z,8.00
2022-11-24T02:05:54.040Z,8.00
2022-11-24T02:08:30.572Z,8.00
2022-11-24T02:10:57.602Z,7.90
2022-11-24T02:13:25.353Z,7.90
2022-11-24T02:15:53.583Z,7.90
2022-11-24T02:18:20.342Z,7.90
2022-11-24T02:20:47.040Z,7.80
2022-11-24T02:23:29.242Z,7.80
2022-11-24T02:26:14.596Z,7.80
2022-11-24T02:28:41.262Z,7.80
2022-11-24T02:31:08.683Z,7.80
2022-11-24T02:33:36.494Z,7.70
2022-11-24T02:36:03.314Z,7.70
2022-11-24T02:38:34.406Z,7.70
2022-11-24T02:41:06.326Z,7.70
2022-11-24T02:43:39.149Z,7.70
2022-11-24T02:46:06.826Z,7.70
2022-11-24T02:48:33.549Z,7.70
2022-11-24T02:51:00.261Z,7.80
2022-11-24T02:53:26.934Z,7.80
2022-11-24T02:55:53.607Z,7.80
2022-11-24T02:58:20.655Z,7.80
2022-11-24T03:00:47.646Z,7.80
2022-11-24T03:03:14.532Z,7.80
2022-11-24T03:05:41.259Z,7.80
2022-11-24T03:08:07.942Z,7.80
2022-11-24T03:10:34.570Z,7.80
2022-11-24T03:13:01.189Z,7.80
2022-11-24T03:15:27.978Z,7.80
2022-11-24T03:17:56.529Z,7.80
2022-11-24T03:20:24.112Z,7.80
2022-11-24T03:22:51.161Z,7.80
2022-11-24T03:25:18.149Z,7.80
2022-11-24T03:27:45.074Z,7.80
2022-11-24T03:30:12.443Z,7.80
2022-11-24T03:32:39.151Z,7.80
2022-11-24T03:35:06.281Z,7.80
2022-11-24T03:37:32.947Z,7.80
2022-11-24T03:39:59.654Z,7.80
2022-11-24T03:42:26.522Z,7.80
2022-11-24T03:44:53.188Z,7.90
2022-11-24T03:47:19.952Z,7.80
2022-11-24T03:49:46.688Z,7.80
2022-11-24T03:52:13.306Z,7.80
2022-11-24T03:54:40.012Z,7.80
2022-11-24T03:57:06.759Z,7.80
2022-11-24T03:59:33.467Z,7.80
2022-11-24T04:02:00.166Z,7.80
2022-11-24T04:04:26.927Z,7.80
2022-11-24T04:06:53.629Z,7.80
2022-11-24T04:09:20.329Z,7.90
2022-11-24T04:12:05.696Z,7.90
2022-11-24T04:14:32.813Z,7.90
2022-11-24T04:16:59.747Z,7.90
2022-11-24T04:19:26.494Z,7.90
2022-11-24T04:21:53.122Z,8.00
2022-11-24T04:24:19.753Z,8.00
2022-11-24T04:26:46.344Z,8.10
2022-11-24T04:29:13.206Z,8.10
2022-11-24T04:31:39.874Z,8.10
2022-11-24T04:34:06.704Z,8.10
2022-11-24T04:36:33.340Z,8.10
2022-11-24T04:39:23.680Z,8.10
2022-11-24T04:41:47.739Z,8.10
2022-11-24T04:44:14.438Z,8.20
2022-11-24T04:46:41.211Z,8.20
2022-11-24T04:49:11.723Z,8.20
2022-11-24T04:51:39.815Z,8.20
2022-11-24T04:54:14.230Z,8.20
2022-11-24T04:56:42.362Z,8.20
2022-11-24T04:59:15.542Z,8.20
2022-11-24T05:01:43.507Z,8.20
2022-11-24T05:04:12.129Z,8.20
2022-11-24T05:06:38.957Z,8.30
2022-11-24T05:09:06.634Z,8.30
2022-11-24T05:11:34.222Z,8.30
2022-11-24T05:14:01.958Z,8.30
2022-11-24T05:16:28.690Z,8.30
2022-11-24T05:18:55.386Z,8.30
2022-11-24T05:21:22.056Z,8.30
2022-11-24T05:23:48.817Z,8.30
2022-11-24T05:26:15.555Z,8.40
2022-11-24T05:28:42.260Z,8.40
2022-11-24T05:31:09.036Z,8.40
2022-11-24T05:33:36.958Z,8.40
2022-11-24T05:36:06.357Z,8.40
2022-11-24T05:38:33.891Z,8.40
2022-11-24T05:41:02.242Z,8.40
2022-11-24T05:43:29.059Z,8.40
2022-11-24T05:45:59.457Z,8.40
2022-11-24T05:48:26.399Z,8.40
2022-11-24T05:50:57.779Z,8.30
2022-11-24T05:53:25.744Z,8.40
2022-11-24T05:55:52.786Z,8.30
2022-11-24T05:58:19.558Z,8.20
2022-11-24T06:00:46.356Z,8.30
2022-11-24T06:03:13.176Z,8.30
2022-11-24T06:05:40.256Z,8.30
2022-11-24T06:08:11.762Z,8.20
2022-11-24T06:10:38.591Z,8.30
2022-11-24T06:13:06.755Z,8.30
2022-11-24T06:15:37.716Z,8.30
2022-11-24T06:18:04.658Z,8.30
2022-11-24T06:20:32.888Z,8.30
2022-11-24T06:23:01.129Z,8.30
2022-11-24T06:25:28.778Z,8.30
2022-11-24T06:27:55.722Z,8.30
2022-11-24T06:30:22.368Z,8.30
2022-11-24T06:32:49.895Z,8.40
2022-11-24T06:35:16.854Z,8.40
2022-11-24T06:37:43.585Z,8.30
2022-11-24T06:40:10.755Z,8.30
2022-11-24T06:42:37.814Z,8.30
2022-11-24T06:45:09.033Z,8.30
2022-11-24T06:47:35.932Z,8.30
2022-11-24T06:50:02.778Z,8.30
2022-11-24T06:52:29.492Z,8.30
2022-11-24T06:54:57.278Z,8.30
2022-11-24T06:57:23.958Z,8.30
2022-11-24T06:59:50.793Z,8.30
2022-11-24T07:02:17.444Z,8.30
2022-11-24T07:04:44.108Z,8.30
2022-11-24T07:07:10.947Z,8.20
2022-11-24T07:09:37.656Z,8.20
2022-11-24T07:12:05.940Z,8.10
2022-11-24T07:14:33.127Z,8.10
2022-11-24T07:17:02.424Z,8.10
2022-11-24T07:19:29.283Z,8.00
2022-11-24T07:21:56.331Z,8.00
2022-11-24T07:24:22.970Z,8.10
2022-11-24T07:26:49.780Z,8.10
2022-11-24T07:29:16.436Z,8.10
2022-11-24T07:31:43.450Z,8.20
2022-11-24T07:34:10.238Z,8.20
2022-11-24T07:36:36.940Z,8.20
2022-11-24T07:39:06.902Z,8.20
2022-11-24T07:41:33.854Z,8.20
2022-11-24T07:44:00.558Z,8.20
2022-11-24T07:46:27.352Z,8.30
2022-11-24T07:48:53.999Z,8.20
2022-11-24T07:51:20.659Z,8.20
2022-11-24T07:53:47.365Z,8.30
2022-11-24T07:56:14.381Z,8.30
2022-11-24T07:58:41.317Z,8.30
2022-11-24T08:01:16.344Z,8.40
2022-11-24T08:03:44.841Z,8.40
2022-11-24T08:06:35.407Z,8.50
2022-11-24T08:08:59.991Z,8.50
2022-11-24T08:11:27.565Z,8.40
2022-11-24T08:13:54.259Z,8.40
2022-11-24T08:16:21.056Z,8.40
2022-11-24T08:18:52.849Z,8.50
2022-11-24T08:21:20.233Z,8.50
2022-11-24T08:23:46.951Z,8.50
2022-11-24T08:26:17.996Z,8.50
2022-11-24T08:28:45.686Z,8.60
2022-11-24T08:31:18.839Z,8.60
2022-11-24T08:33:46.656Z,8.70
2022-11-24T08:36:16.462Z,8.70
2022-11-24T08:38:44.629Z,8.60
2022-11-24T08:41:14.487Z,8.60
2022-11-24T08:43:42.059Z,8.60
2022-11-24T08:46:11.115Z,8.60
2022-11-24T08:48:38.028Z,8.70
2022-11-24T08:51:13.633Z,8.70
2022-11-24T08:53:41.654Z,8.70
2022-11-24T08:56:09.934Z,8.70
2022-11-24T08:58:37.303Z,8.70
2022-11-24T09:01:18.889Z,8.70
2022-11-24T09:03:50.660Z,8.70
2022-11-24T09:06:22.475Z,8.80
2022-11-24T09:08:49.402Z,8.90
2022-11-24T09:11:17.418Z,8.90
2022-11-24T09:13:44.892Z,9.00
2022-11-24T09:16:14.104Z,9.00
2022-11-24T09:18:41.087Z,9.00
2022-11-24T09:21:20.420Z,9.00
2022-11-24T09:23:48.961Z,9.10
2022-11-24T09:26:22.631Z,9.10
2022-11-24T09:28:50.171Z,9.10
2022-11-24T09:31:18.028Z,9.20
2022-11-24T09:33:45.353Z,9.20
2022-11-24T09:36:12.499Z,9.30
2022-11-24T09:38:39.654Z,9.30
2022-11-24T09:41:24.399Z,9.40
2022-11-24T09:44:09.237Z,9.40
2022-11-24T09:46:58.827Z,9.50
2022-11-24T09:49:58.091Z,9.50
2022-11-24T09:52:50.119Z,9.50
2022-11-24T09:55:37.347Z,9.50
2022-11-24T09:58:12.873Z,9.60
2022-11-24T10:00:40.316Z,9.60
2022-11-24T10:03:15.692Z,9.60
2022-11-24T10:05:43.298Z,9.60
2022-11-24T10:08:17.359Z,9.60
2022-11-24T10:11:06.605Z,9.60
2022-11-24T10:14:02.596Z,9.70
2022-11-24T10:16:50.051Z,9.70
2022-11-24T10:19:44.551Z,9.70
2022-11-24T10:22:36.933Z,9.70
2022-11-24T10:25:16.219Z,9.80
2022-11-24T10:28:00.088Z,9.80
2022-11-24T10:30:29.070Z,9.90
2022-11-24T10:33:03.585Z,9.90
2022-11-24T10:35:45.918Z,9.90
2022-11-24T10:38:21.418Z,9.90
2022-11-24T10:40:58.892Z,10.00
2022-11-24T10:43:28.119Z,10.10
2022-11-24T10:46:20.471Z,10.20
2022-11-24T10:48:50.664Z,10.30
2022-11-24T10:51:54.447Z,10.40
2022-11-24T10:54:23.843Z,10.40
2022-11-24T10:56:52.122Z,10.40
2022-11-24T10:59:34.837Z,10.50
2022-11-24T11:02:02.322Z,10.50
2022-11-24T11:04:35.013Z,10.50
2022-11-24T11:07:18.449Z,10.50
2022-11-24T11:09:46.267Z,10.60
2022-11-24T11:12:42.574Z,10.60
2022-11-24T11:15:30.948Z,10.60
2022-11-24T11:18:00.191Z,10.70
2022-11-24T11:20:33.602Z,10.70
2022-11-24T11:23:21.377Z,10.70
2022-11-24T11:25:48.573Z,10.70
2022-11-24T11:28:18.554Z,10.80
2022-11-24T11:31:16.809Z,10.90
2022-11-24T11:34:04.978Z,10.90
2022-11-24T11:36:33.533Z,10.90
2022-11-24T11:39:00.646Z,10.90
2022-11-24T11:41:36.841Z,10.90
2022-11-24T11:44:28.525Z,10.90
2022-11-24T11:46:58.811Z,11.10
2022-11-24T11:49:25.675Z,11.10
2022-11-24T11:52:30.992Z,11.20
2022-11-24T11:55:00.451Z,11.30
2022-11-24T11:58:01.931Z,11.40
2022-11-24T12:00:32.454Z,11.50
2022-11-24T12:03:39.211Z,11.70
2022-11-24T12:06:38.652Z,11.60
2022-11-24T12:09:23.716Z,11.50
2022-11-24T12:12:05.348Z,11.50
2022-11-24T12:15:04.575Z,11.60
2022-11-24T12:17:46.964Z,11.70
2022-11-24T12:20:36.734Z,11.70
2022-11-24T12:23:21.703Z,11.70
2022-11-24T12:26:13.711Z,11.80
2022-11-24T12:29:07.383Z,11.80
2022-11-24T12:32:03.316Z,11.70
2022-11-24T12:34:44.372Z,11.70
2022-11-24T12:37:36.989Z,11.80
2022-11-24T12:40:47.195Z,11.90
2022-11-24T12:43:33.413Z,11.90
2022-11-24T12:46:34.252Z,11.90
2022-11-24T12:49:25.658Z,12.10
2022-11-24T12:51:59.755Z,12.10
2022-11-24T12:54:35.425Z,12.20
2022-11-24T12:57:25.386Z,12.20
2022-11-24T13:00:02.265Z,12.20
2022-11-24T13:02:47.585Z,12.20
2022-11-24T13:05:33.321Z,12.30
2022-11-24T13:08:03.186Z,12.30
2022-11-24T13:10:56.218Z,12.40
2022-11-24T13:13:29.780Z,12.30
2022-11-24T13:16:20.678Z,12.40
2022-11-24T13:18:53.812Z,12.50
2022-11-24T13:21:51.836Z,12.50
2022-11-24T13:24:24.425Z,12.50
2022-11-24T13:27:11.672Z,12.50
2022-11-24T13:29:39.547Z,12.50
2022-11-24T13:32:06.312Z,12.60
2022-11-24T13:34:39.165Z,12.60
2022-11-24T13:37:35.031Z,12.60
2022-11-24T13:40:11.860Z,12.60
2022-11-24T13:43:02.000Z,12.60
2022-11-24T13:45:45.080Z,12.60
2022-11-24T13:48:21.883Z,12.70
2022-11-24T13:50:54.977Z,12.80
2022-11-24T13:53:40.272Z,12.70
2022-11-24T13:56:13.006Z,12.80
2022-11-24T13:58:40.584Z,12.80
2022-11-24T14:01:28.444Z,12.80
2022-11-24T14:04:33.429Z,12.80
2022-11-24T14:07:09.370Z,12.70
2022-11-24T14:09:36.477Z,12.70
2022-11-24T14:12:20.274Z,12.80
2022-11-24T14:14:49.345Z,12.80
2022-11-24T14:17:22.962Z,12.70
2022-11-24T14:19:52.798Z,12.50
2022-11-24T14:22:42.557Z,12.40
2022-11-24T14:25:27.859Z,12.30
2022-11-24T14:27:54.584Z,12.10
2022-11-24T14:30:23.163Z,12.00
2022-11-24T14:33:01.222Z,11.90
2022-11-24T14:35:30.917Z,11.90
2022-11-24T14:37:58.780Z,11.70
2022-11-24T14:40:45.244Z,11.70
2022-11-24T14:43:30.799Z,11.60
2022-11-24T14:46:02.461Z,11.50
2022-11-24T14:48:32.770Z,11.50
2022-11-24T14:51:11.346Z,11.40
2022-11-24T14:53:42.557Z,11.40
2022-11-24T14:56:31.679Z,11.40
2022-11-24T14:58:59.320Z,11.40
2022-11-24T15:01:32.793Z,11.40
2022-11-24T15:04:17.882Z,11.40
2022-11-24T15:07:20.778Z,11.30
2022-11-24T15:09:47.662Z,11.30
2022-11-24T15:12:38.113Z,11.20
2022-11-24T15:15:16.895Z,11.10
2022-11-24T15:17:52.556Z,11.10
2022-11-24T15:20:27.076Z,11.00
2022-11-24T15:23:29.224Z,11.00
2022-11-24T15:26:01.928Z,10.90
2022-11-24T15:28:30.362Z,10.80
2022-11-24T15:31:01.963Z,10.70
2022-11-24T15:33:32.287Z,10.70
2022-11-24T15:35:59.938Z,10.60
2022-11-24T15:38:26.731Z,10.60
2022-11-24T15:40:55.883Z,10.50
2022-11-24T15:43:39.796Z,10.20
2022-11-24T15:46:07.776Z,10.10
2022-11-24T15:48:34.741Z,10.00
2022-11-24T15:51:05.727Z,10.00
2022-11-24T15:53:44.171Z,9.80
2022-11-24T15:56:41.910Z,9.60
2022-11-24T15:59:20.382Z,9.60
2022-11-24T16:01:49.684Z,9.60
2022-11-24T16:04:16.680Z,9.60
2022-11-24T16:06:43.392Z,9.40
2022-11-24T16:09:15.512Z,9.30
2022-11-24T16:11:42.168Z,9.20
2022-11-24T16:14:08.974Z,9.10
2022-11-24T16:16:35.726Z,9.10
2022-11-24T16:19:02.784Z,9.10
2022-11-24T16:21:29.458Z,9.10
2022-11-24T16:23:59.073Z,9.20
2022-11-24T16:26:25.801Z,9.20
2022-11-24T16:28:52.480Z,9.30
2022-11-24T16:31:19.832Z,9.30
2022-11-24T16:33:46.959Z,9.30
2022-11-24T16:36:14.359Z,9.20
2022-11-24T16:38:41.133Z,9.30
2022-11-24T16:41:10.425Z,9.30
2022-11-24T16:43:37.512Z,9.30
2022-11-24T16:46:23.220Z,9.30
2022-11-24T16:48:51.936Z,9.30
2022-11-24T16:51:21.036Z,9.30
2022-11-24T16:53:48.534Z,9.30
2022-11-24T16:56:16.404Z,9.20
2022-11-24T16:58:45.870Z,9.10
2022-11-24T17:01:13.933Z,9.10
2022-11-24T17:03:41.356Z,9.00
2022-11-24T17:06:11.828Z,9.00
2022-11-24T17:08:40.260Z,8.90
2022-11-24T17:11:18.090Z,8.80
2022-11-24T17:13:45.899Z,8.70
2022-11-24T17:16:15.125Z,8.70
2022-11-24T17:18:42.300Z,8.70
2022-11-24T17:21:18.373Z,8.60
2022-11-24T17:23:45.529Z,8.60
2022-11-24T17:26:14.401Z,8.60
2022-11-24T17:28:42.259Z,8.60
2022-11-24T17:31:41.454Z,8.60
2022-11-24T17:34:10.963Z,8.60
2022-11-24T17:36:38.121Z,8.60
2022-11-24T17:39:07.139Z,8.50
2022-11-24T17:41:34.206Z,8.50
2022-11-24T17:44:00.939Z,8.60
2022-11-24T17:46:28.829Z,8.70
2022-11-24T17:48:56.254Z,8.60
2022-11-24T17:51:25.133Z,8.60
2022-11-24T17:53:53.167Z,8.60
2022-11-24T17:56:25.606Z,8.50
2022-11-24T17:58:54.382Z,8.30
2022-11-24T18:01:21.759Z,8.30
2022-11-24T18:03:53.154Z,8.40
2022-11-24T18:06:24.043Z,8.40
2022-11-24T18:08:51.127Z,8.40
2022-11-24T18:11:30.221Z,8.40
2022-11-24T18:14:01.191Z,8.30
2022-11-24T18:16:30.231Z,8.00
2022-11-24T18:19:08.507Z,7.80
2022-11-24T18:21:44.618Z,7.80
2022-11-24T18:24:12.531Z,7.90
2022-11-24T18:26:40.589Z,7.90
2022-11-24T18:29:08.048Z,7.90
2022-11-24T18:31:35.888Z,7.80
2022-11-24T18:34:04.308Z,7.80
2022-11-24T18:36:31.584Z,7.80
2022-11-24T18:39:01.871Z,7.90
2022-11-24T18:41:28.637Z,7.90
2022-11-24T18:43:55.357Z,8.00
2022-11-24T18:46:22.256Z,8.00
2022-11-24T18:48:49.065Z,7.90
2022-11-24T18:51:15.770Z,7.80
2022-11-24T18:53:43.985Z,7.70
2022-11-24T18:56:16.013Z,7.70
2022-11-24T18:58:43.514Z,7.70
2022-11-24T19:01:19.510Z,7.80
2022-11-24T19:03:49.061Z,7.80
2022-11-24T19:06:22.618Z,7.70
2022-11-24T19:08:53.376Z,7.60
2022-11-24T19:11:25.572Z,7.60
2022-11-24T19:13:52.462Z,7.60
2022-11-24T19:16:20.378Z,7.70
2022-11-24T19:18:53.707Z,7.70
2022-11-24T19:21:22.412Z,7.80
2022-11-24T19:23:49.934Z,7.70
2022-11-24T19:26:16.664Z,7.80
2022-11-24T19:28:43.869Z,7.60
2022-11-24T19:31:15.982Z,7.60
2022-11-24T19:33:43.316Z,7.50
2022-11-24T19:36:18.021Z,7.50
2022-11-24T19:38:51.022Z,7.60
2022-11-24T19:41:21.454Z,7.50
2022-11-24T19:43:48.613Z,7.50
2022-11-24T19:46:17.927Z,7.50
2022-11-24T19:48:46.872Z,7.50
2022-11-24T19:51:16.469Z,7.50
2022-11-24T19:53:43.789Z,7.40
2022-11-24T19:56:13.361Z,7.30
2022-11-24T19:58:40.749Z,7.30
2022-11-24T20:01:09.040Z,7.20
2022-11-24T20:03:36.532Z,7.20
2022-11-24T20:06:04.368Z,7.20
2022-11-24T20:08:32.416Z,7.10
2022-11-24T20:11:06.627Z,7.00
2022-11-24T20:13:38.203Z,7.00
2022-11-24T20:16:09.939Z,7.00
2022-11-24T20:18:41.979Z,7.00
2022-11-24T20:21:11.573Z,7.00
2022-11-24T20:23:39.240Z,7.00
2022-11-24T20:26:14.567Z,7.00
2022-11-24T20:28:41.979Z,7.00
2022-11-24T20:31:15.987Z,7.00
2022-11-24T20:33:43.296Z,7.00
2022-11-24T20:36:12.492Z,7.00
2022-11-24T20:38:41.117Z,7.10
2022-11-24T20:41:16.545Z,7.10
2022-11-24T20:43:44.605Z,7.10
2022-11-24T20:46:16.961Z,7.00
2022-11-24T20:48:44.537Z,6.90
2022-11-24T20:51:14.377Z,6.80
2022-11-24T20:53:41.123Z,6.80
2022-11-24T20:56:13.925Z,6.70
2022-11-24T20:58:41.434Z,6.70
2022-11-24T21:01:11.513Z,6.70
2022-11-24T21:03:43.041Z,6.70
2022-11-24T21:06:11.640Z,6.70
2022-11-24T21:08:39.876Z,6.70
2022-11-24T21:11:07.975Z,6.70
2022-11-24T21:13:36.690Z,6.60
2022-11-24T21:16:14.142Z,6.50
2022-11-24T21:18:41.080Z,6.50
2022-11-24T21:21:08.066Z,6.30
2022-11-24T21:23:34.927Z,6.20
2022-11-24T21:26:05.575Z,6.30
2022-11-24T21:28:34.636Z,6.30
2022-11-24T21:31:06.422Z,6.30
2022-11-24T21:33:33.638Z,6.30
2022-11-24T21:36:03.112Z,6.30
2022-11-24T21:38:30.185Z,6.30
2022-11-24T21:41:05.593Z,6.30
2022-11-24T21:43:33.306Z,6.30
2022-11-24T21:46:09.147Z,6.30
2022-11-24T21:48:37.281Z,6.30
2022-11-24T21:51:07.015Z,6.10
2022-11-24T21:53:35.730Z,6.10
2022-11-24T21:56:05.889Z,6.00
2022-11-24T21:58:33.801Z,6.00
2022-11-24T22:01:10.590Z,5.80
2022-11-24T22:03:37.551Z,5.60
2022-11-24T22:06:04.730Z,5.40
2022-11-24T22:08:31.766Z,5.40
2022-11-24T22:11:07.569Z,5.50
2022-11-24T22:13:34.252Z,5.50
2022-11-24T22:16:09.646Z,5.70
2022-11-24T22:18:38.858Z,5.50
2022-11-24T22:21:07.517Z,5.70
2022-11-24T22:23:35.520Z,5.70
2022-11-24T22:26:07.085Z,5.70
2022-11-24T22:28:35.376Z,5.90
2022-11-24T22:31:19.675Z,6.00
2022-11-24T22:33:47.079Z,6.00
2022-11-24T22:36:15.318Z,6.00
2022-11-24T22:38:42.777Z,6.00
2022-11-24T22:41:12.128Z,5.90
2022-11-24T22:43:40.305Z,6.00
2022-11-24T22:46:10.942Z,6.10
2022-11-24T22:48:39.059Z,6.00
2022-11-24T22:51:16.676Z,6.00
2022-11-24T22:53:48.541Z,6.10
2022-11-24T22:56:16.016Z,6.10
2022-11-24T22:58:43.279Z,6.00
2022-11-24T23:01:14.859Z,6.10
2022-11-24T23:03:42.354Z,6.10
2022-11-24T23:06:14.711Z,6.10
2022-11-24T23:08:42.035Z,6.20
2022-11-24T23:11:11.405Z,6.30
2022-11-24T23:13:38.928Z,6.50
2022-11-24T23:16:14.448Z,6.50
2022-11-24T23:18:41.897Z,6.50
2022-11-24T23:21:12.489Z,6.50
2022-11-24T23:23:42.561Z,6.40
2022-11-24T23:26:12.202Z,6.20
2022-11-24T23:28:39.194Z,6.20
2022-11-24T23:31:10.249Z,6.20
2022-11-24T23:33:37.675Z,6.30
2022-11-24T23:36:14.050Z,6.20
2022-11-24T23:38:41.360Z,6.10
2022-11-24T23:41:10.787Z,6.20
2022-11-24T23:43:39.399Z,6.30
2022-11-24T23:46:13.891Z,6.30
2022-11-24T23:48:40.870Z,6.30
2022-11-24T23:51:14.242Z,6.40
2022-11-24T23:53:41.921Z,6.50
2022-11-24T23:56:14.916Z,6.40
2022-11-24T23:58:41.977Z,6.30
